sensor_id;sensor_type;location;lat;lon;timestamp;P1;durP1;ratioP1;P2;durP2;ratioP2
33501;SDS011;22396;51.070;4.974;2023-02-24T00:01:26;9.70;;;1.93;;
33501;SDS011;22396;51.070;4.974;2023-02-24T00:03:58;9.20;;;1.53;;
33501;SDS011;22396;51.070;4.974;2023-02-24T00:06:25;11.50;;;1.65;;
33501;SDS011;22396;51.070;4.974;2023-02-24T00:08:50;12.00;;;1.50;;
33501;SDS011;22396;51.070;4.974;2023-02-24T00:11:16;14.77;;;2.07;;
33501;SDS011;22396;51.070;4.974;2023-02-24T00:13:42;14.07;;;2.00;;
33501;SDS011;22396;51.070;4.974;2023-02-24T00:16:12;15.53;;;1.50;;
33501;SDS011;22396;51.070;4.974;2023-02-24T00:18:37;14.60;;;1.90;;
33501;SDS011;22396;51.070;4.974;2023-02-24T00:21:07;11.00;;;1.70;;
33501;SDS011;22396;51.070;4.974;2023-02-24T00:23:34;11.03;;;1.90;;
33501;SDS011;22396;51.070;4.974;2023-02-24T00:26:03;12.17;;;2.50;;
33501;SDS011;22396;51.070;4.974;2023-02-24T00:28:28;9.80;;;1.77;;
33501;SDS011;22396;51.070;4.974;2023-02-24T00:30:54;18.33;;;1.70;;
33501;SDS011;22396;51.070;4.974;2023-02-24T00:33:20;11.27;;;1.87;;
33501;SDS011;22396;51.070;4.974;2023-02-24T00:35:47;9.97;;;1.60;;
33501;SDS011;22396;51.070;4.974;2023-02-24T00:38:13;10.33;;;2.03;;
33501;SDS011;22396;51.070;4.974;2023-02-24T00:40:38;8.83;;;1.63;;
33501;SDS011;22396;51.070;4.974;2023-02-24T00:43:05;13.67;;;1.80;;
33501;SDS011;22396;51.070;4.974;2023-02-24T00:45:34;14.53;;;2.10;;
33501;SDS011;22396;51.070;4.974;2023-02-24T00:48:00;10.00;;;2.20;;
33501;SDS011;22396;51.070;4.974;2023-02-24T00:50:28;13.93;;;1.73;;
33501;SDS011;22396;51.070;4.974;2023-02-24T00:52:54;17.17;;;2.17;;
33501;SDS011;22396;51.070;4.974;2023-02-24T00:55:19;12.13;;;1.53;;
33501;SDS011;22396;51.070;4.974;2023-02-24T00:57:47;10.70;;;2.30;;
33501;SDS011;22396;51.070;4.974;2023-02-24T01:00:14;7.10;;;1.43;;
33501;SDS011;22396;51.070;4.974;2023-02-24T01:02:41;13.33;;;1.57;;
33501;SDS011;22396;51.070;4.974;2023-02-24T01:05:08;13.30;;;1.93;;
33501;SDS011;22396;51.070;4.974;2023-02-24T01:07:34;11.37;;;1.93;;
33501;SDS011;22396;51.070;4.974;2023-02-24T01:09:59;9.73;;;2.07;;
33501;SDS011;22396;51.070;4.974;2023-02-24T01:12:25;14.57;;;1.93;;
33501;SDS011;22396;51.070;4.974;2023-02-24T01:15:03;15.63;;;2.20;;
33501;SDS011;22396;51.070;4.974;2023-02-24T01:17:29;9.23;;;2.17;;
33501;SDS011;22396;51.070;4.974;2023-02-24T01:19:54;19.87;;;2.30;;
33501;SDS011;22396;51.070;4.974;2023-02-24T01:22:24;12.43;;;2.07;;
33501;SDS011;22396;51.070;4.974;2023-02-24T01:24:50;10.13;;;1.90;;
33501;SDS011;22396;51.070;4.974;2023-02-24T01:27:15;7.50;;;1.90;;
33501;SDS011;22396;51.070;4.974;2023-02-24T01:29:42;14.10;;;1.87;;
33501;SDS011;22396;51.070;4.974;2023-02-24T01:32:11;21.53;;;2.53;;
33501;SDS011;22396;51.070;4.974;2023-02-24T01:34:37;9.73;;;2.00;;
33501;SDS011;22396;51.070;4.974;2023-02-24T01:37:03;13.43;;;2.40;;
33501;SDS011;22396;51.070;4.974;2023-02-24T01:39:28;19.73;;;2.63;;
33501;SDS011;22396;51.070;4.974;2023-02-24T01:41:53;13.20;;;1.77;;
33501;SDS011;22396;51.070;4.974;2023-02-24T01:46:49;14.63;;;2.00;;
33501;SDS011;22396;51.070;4.974;2023-02-24T01:49:22;13.87;;;2.50;;
33501;SDS011;22396;51.070;4.974;2023-02-24T01:51:52;13.67;;;2.63;;
33501;SDS011;22396;51.070;4.974;2023-02-24T01:54:19;13.03;;;2.07;;
33501;SDS011;22396;51.070;4.974;2023-02-24T01:56:46;21.03;;;2.53;;
33501;SDS011;22396;51.070;4.974;2023-02-24T01:59:13;10.67;;;2.30;;
33501;SDS011;22396;51.070;4.974;2023-02-24T02:01:40;15.07;;;2.10;;
33501;SDS011;22396;51.070;4.974;2023-02-24T02:04:10;9.47;;;2.03;;
33501;SDS011;22396;51.070;4.974;2023-02-24T02:06:36;13.20;;;2.60;;
33501;SDS011;22396;51.070;4.974;2023-02-24T02:09:03;17.37;;;2.53;;
33501;SDS011;22396;51.070;4.974;2023-02-24T02:11:28;7.70;;;2.33;;
33501;SDS011;22396;51.070;4.974;2023-02-24T02:13:54;13.33;;;2.53;;
33501;SDS011;22396;51.070;4.974;2023-02-24T02:21:44;10.27;;;2.33;;
33501;SDS011;22396;51.070;4.974;2023-02-24T02:35:09;17.57;;;2.67;;
33501;SDS011;22396;51.070;4.974;2023-02-24T02:40:23;10.73;;;1.77;;
33501;SDS011;22396;51.070;4.974;2023-02-24T02:42:57;15.60;;;2.00;;
33501;SDS011;22396;51.070;4.974;2023-02-24T02:45:24;9.40;;;2.03;;
33501;SDS011;22396;51.070;4.974;2023-02-24T02:47:53;6.67;;;1.67;;
33501;SDS011;22396;51.070;4.974;2023-02-24T02:52:52;8.93;;;1.90;;
33501;SDS011;22396;51.070;4.974;2023-02-24T02:55:27;15.00;;;2.30;;
33501;SDS011;22396;51.070;4.974;2023-02-24T02:57:54;9.97;;;1.53;;
33501;SDS011;22396;51.070;4.974;2023-02-24T03:00:27;10.13;;;1.73;;
33501;SDS011;22396;51.070;4.974;2023-02-24T03:02:55;6.87;;;1.70;;
33501;SDS011;22396;51.070;4.974;2023-02-24T03:05:23;14.73;;;2.30;;
33501;SDS011;22396;51.070;4.974;2023-02-24T03:07:53;6.70;;;1.70;;
33501;SDS011;22396;51.070;4.974;2023-02-24T03:10:27;7.33;;;1.70;;
33501;SDS011;22396;51.070;4.974;2023-02-24T03:12:54;10.73;;;1.70;;
33501;SDS011;22396;51.070;4.974;2023-02-24T03:15:21;9.73;;;1.80;;
33501;SDS011;22396;51.070;4.974;2023-02-24T03:17:49;8.73;;;1.70;;
33501;SDS011;22396;51.070;4.974;2023-02-24T03:20:21;14.55;;;1.70;;
33501;SDS011;22396;51.070;4.974;2023-02-24T03:23:04;11.87;;;1.60;;
33501;SDS011;22396;51.070;4.974;2023-02-24T03:25:41;9.80;;;1.70;;
33501;SDS011;22396;51.070;4.974;2023-02-24T03:28:15;9.43;;;1.83;;
33501;SDS011;22396;51.070;4.974;2023-02-24T03:33:14;10.40;;;1.30;;
33501;SDS011;22396;51.070;4.974;2023-02-24T03:35:42;14.97;;;1.70;;
33501;SDS011;22396;51.070;4.974;2023-02-24T03:38:08;15.93;;;2.30;;
33501;SDS011;22396;51.070;4.974;2023-02-24T03:40:35;6.93;;;1.60;;
33501;SDS011;22396;51.070;4.974;2023-02-24T03:43:22;12.47;;;2.00;;
33501;SDS011;22396;51.070;4.974;2023-02-24T03:45:46;20.20;;;2.47;;
33501;SDS011;22396;51.070;4.974;2023-02-24T03:48:12;11.00;;;2.37;;
33501;SDS011;22396;51.070;4.974;2023-02-24T03:50:38;12.30;;;2.23;;
33501;SDS011;22396;51.070;4.974;2023-02-24T04:01:02;10.33;;;2.07;;
33501;SDS011;22396;51.070;4.974;2023-02-24T04:03:45;10.37;;;2.17;;
33501;SDS011;22396;51.070;4.974;2023-02-24T04:08:49;11.97;;;2.17;;
33501;SDS011;22396;51.070;4.974;2023-02-24T04:11:39;9.57;;;1.70;;
33501;SDS011;22396;51.070;4.974;2023-02-24T04:14:09;10.63;;;2.10;;
33501;SDS011;22396;51.070;4.974;2023-02-24T04:16:37;17.87;;;2.43;;
33501;SDS011;22396;51.070;4.974;2023-02-24T04:19:07;7.73;;;1.70;;
33501;SDS011;22396;51.070;4.974;2023-02-24T04:21:33;12.33;;;2.57;;
33501;SDS011;22396;51.070;4.974;2023-02-24T04:24:00;8.90;;;2.00;;
33501;SDS011;22396;51.070;4.974;2023-02-24T04:26:30;13.47;;;1.90;;
33501;SDS011;22396;51.070;4.974;2023-02-24T04:28:56;9.03;;;1.70;;
33501;SDS011;22396;51.070;4.974;2023-02-24T04:31:21;15.10;;;2.40;;
33501;SDS011;22396;51.070;4.974;2023-02-24T04:33:48;13.97;;;2.20;;
33501;SDS011;22396;51.070;4.974;2023-02-24T04:36:17;12.27;;;2.00;;
33501;SDS011;22396;51.070;4.974;2023-02-24T04:38:43;16.57;;;2.17;;
33501;SDS011;22396;51.070;4.974;2023-02-24T04:41:10;11.87;;;2.13;;
33501;SDS011;22396;51.070;4.974;2023-02-24T04:43:35;11.97;;;2.17;;
33501;SDS011;22396;51.070;4.974;2023-02-24T04:46:00;12.43;;;1.90;;
33501;SDS011;22396;51.070;4.974;2023-02-24T04:48:31;8.80;;;2.00;;
33501;SDS011;22396;51.070;4.974;2023-02-24T04:50:58;9.80;;;2.00;;
33501;SDS011;22396;51.070;4.974;2023-02-24T04:53:26;9.40;;;2.10;;
33501;SDS011;22396;51.070;4.974;2023-02-24T04:55:52;10.10;;;2.17;;
33501;SDS011;22396;51.070;4.974;2023-02-24T04:58:21;5.57;;;1.97;;
33501;SDS011;22396;51.070;4.974;2023-02-24T05:00:47;20.40;;;2.20;;
33501;SDS011;22396;51.070;4.974;2023-02-24T05:03:13;11.40;;;2.23;;
33501;SDS011;22396;51.070;4.974;2023-02-24T05:05:39;7.83;;;2.30;;
33501;SDS011;22396;51.070;4.974;2023-02-24T05:08:07;6.43;;;2.07;;
33501;SDS011;22396;51.070;4.974;2023-02-24T05:13:02;10.73;;;1.97;;
33501;SDS011;22396;51.070;4.974;2023-02-24T05:15:27;12.00;;;2.57;;
33501;SDS011;22396;51.070;4.974;2023-02-24T05:17:59;20.60;;;2.67;;
33501;SDS011;22396;51.070;4.974;2023-02-24T05:20:25;14.27;;;2.23;;
33501;SDS011;22396;51.070;4.974;2023-02-24T05:23:09;13.07;;;2.07;;
33501;SDS011;22396;51.070;4.974;2023-02-24T05:25:35;14.10;;;1.90;;
33501;SDS011;22396;51.070;4.974;2023-02-24T05:28:02;11.30;;;2.30;;
33501;SDS011;22396;51.070;4.974;2023-02-24T05:30:28;7.57;;;2.10;;
33501;SDS011;22396;51.070;4.974;2023-02-24T05:32:53;8.33;;;2.00;;
33501;SDS011;22396;51.070;4.974;2023-02-24T05:35:18;9.47;;;2.30;;
33501;SDS011;22396;51.070;4.974;2023-02-24T05:37:43;8.33;;;2.00;;
33501;SDS011;22396;51.070;4.974;2023-02-24T05:40:09;8.17;;;1.90;;
33501;SDS011;22396;51.070;4.974;2023-02-24T05:42:37;18.97;;;2.77;;
33501;SDS011;22396;51.070;4.974;2023-02-24T05:45:02;12.10;;;3.20;;
33501;SDS011;22396;51.070;4.974;2023-02-24T05:47:29;12.20;;;2.50;;
33501;SDS011;22396;51.070;4.974;2023-02-24T05:49:54;8.13;;;2.43;;
33501;SDS011;22396;51.070;4.974;2023-02-24T05:52:23;12.77;;;2.57;;
33501;SDS011;22396;51.070;4.974;2023-02-24T05:54:48;8.90;;;2.23;;
33501;SDS011;22396;51.070;4.974;2023-02-24T05:57:17;13.33;;;2.80;;
33501;SDS011;22396;51.070;4.974;2023-02-24T05:59:46;10.87;;;2.57;;
33501;SDS011;22396;51.070;4.974;2023-02-24T06:02:13;11.90;;;2.57;;
33501;SDS011;22396;51.070;4.974;2023-02-24T06:04:40;14.30;;;2.83;;
33501;SDS011;22396;51.070;4.974;2023-02-24T06:07:11;7.47;;;2.28;;
33501;SDS011;22396;51.070;4.974;2023-02-24T06:09:42;13.87;;;2.50;;
33501;SDS011;22396;51.070;4.974;2023-02-24T06:12:08;15.70;;;2.40;;
33501;SDS011;22396;51.070;4.974;2023-02-24T06:14:34;14.67;;;3.33;;
33501;SDS011;22396;51.070;4.974;2023-02-24T06:16:59;11.83;;;2.47;;
33501;SDS011;22396;51.070;4.974;2023-02-24T06:19:27;6.60;;;2.13;;
33501;SDS011;22396;51.070;4.974;2023-02-24T06:21:56;7.43;;;2.67;;
33501;SDS011;22396;51.070;4.974;2023-02-24T06:24:21;12.37;;;2.50;;
33501;SDS011;22396;51.070;4.974;2023-02-24T06:26:46;11.80;;;2.60;;
33501;SDS011;22396;51.070;4.974;2023-02-24T06:29:15;10.30;;;2.50;;
33501;SDS011;22396;51.070;4.974;2023-02-24T06:31:41;9.60;;;2.00;;
33501;SDS011;22396;51.070;4.974;2023-02-24T06:34:07;6.70;;;2.30;;
33501;SDS011;22396;51.070;4.974;2023-02-24T06:36:34;16.23;;;3.03;;
33501;SDS011;22396;51.070;4.974;2023-02-24T06:39:00;11.93;;;2.40;;
33501;SDS011;22396;51.070;4.974;2023-02-24T06:41:26;11.57;;;3.43;;
33501;SDS011;22396;51.070;4.974;2023-02-24T06:43:53;10.57;;;2.00;;
33501;SDS011;22396;51.070;4.974;2023-02-24T06:46:18;7.77;;;2.43;;
33501;SDS011;22396;51.070;4.974;2023-02-24T06:48:44;6.80;;;2.17;;
33501;SDS011;22396;51.070;4.974;2023-02-24T06:51:13;7.30;;;2.70;;
33501;SDS011;22396;51.070;4.974;2023-02-24T06:53:39;8.80;;;2.43;;
33501;SDS011;22396;51.070;4.974;2023-02-24T06:56:12;13.53;;;2.70;;
33501;SDS011;22396;51.070;4.974;2023-02-24T06:58:42;14.87;;;4.20;;
33501;SDS011;22396;51.070;4.974;2023-02-24T07:01:08;31.80;;;7.47;;
33501;SDS011;22396;51.070;4.974;2023-02-24T07:03:35;34.47;;;12.63;;
33501;SDS011;22396;51.070;4.974;2023-02-24T07:06:07;23.37;;;8.03;;
33501;SDS011;22396;51.070;4.974;2023-02-24T07:08:44;19.33;;;6.07;;
33501;SDS011;22396;51.070;4.974;2023-02-24T07:11:10;21.37;;;6.63;;
33501;SDS011;22396;51.070;4.974;2023-02-24T07:13:35;16.80;;;5.60;;
33501;SDS011;22396;51.070;4.974;2023-02-24T07:16:01;27.77;;;7.83;;
33501;SDS011;22396;51.070;4.974;2023-02-24T07:18:34;33.47;;;9.43;;
33501;SDS011;22396;51.070;4.974;2023-02-24T07:21:05;22.43;;;7.27;;
33501;SDS011;22396;51.070;4.974;2023-02-24T07:23:35;16.83;;;5.10;;
33501;SDS011;22396;51.070;4.974;2023-02-24T07:26:01;17.20;;;5.20;;
33501;SDS011;22396;51.070;4.974;2023-02-24T07:28:30;19.97;;;4.60;;
33501;SDS011;22396;51.070;4.974;2023-02-24T07:30:55;14.43;;;3.80;;
33501;SDS011;22396;51.070;4.974;2023-02-24T07:33:24;9.53;;;3.43;;
33501;SDS011;22396;51.070;4.974;2023-02-24T07:35:49;23.10;;;4.10;;
33501;SDS011;22396;51.070;4.974;2023-02-24T07:38:15;14.80;;;3.77;;
33501;SDS011;22396;51.070;4.974;2023-02-24T07:40:46;15.27;;;3.90;;
33501;SDS011;22396;51.070;4.974;2023-02-24T07:43:11;10.77;;;3.60;;
33501;SDS011;22396;51.070;4.974;2023-02-24T07:45:36;10.07;;;3.37;;
33501;SDS011;22396;51.070;4.974;2023-02-24T07:48:01;12.40;;;3.47;;
33501;SDS011;22396;51.070;4.974;2023-02-24T07:50:27;18.73;;;3.90;;
33501;SDS011;22396;51.070;4.974;2023-02-24T07:52:56;18.17;;;4.37;;
33501;SDS011;22396;51.070;4.974;2023-02-24T07:55:21;17.77;;;4.37;;
33501;SDS011;22396;51.070;4.974;2023-02-24T07:57:49;13.83;;;3.17;;
33501;SDS011;22396;51.070;4.974;2023-02-24T08:00:15;16.77;;;3.20;;
33501;SDS011;22396;51.070;4.974;2023-02-24T08:02:46;16.07;;;3.63;;
33501;SDS011;22396;51.070;4.974;2023-02-24T08:05:13;17.27;;;2.87;;
33501;SDS011;22396;51.070;4.974;2023-02-24T08:07:40;9.33;;;2.97;;
33501;SDS011;22396;51.070;4.974;2023-02-24T08:10:06;12.33;;;2.67;;
33501;SDS011;22396;51.070;4.974;2023-02-24T08:12:38;10.65;;;2.65;;
33501;SDS011;22396;51.070;4.974;2023-02-24T08:15:06;14.90;;;3.70;;
33501;SDS011;22396;51.070;4.974;2023-02-24T08:17:34;24.57;;;5.83;;
33501;SDS011;22396;51.070;4.974;2023-02-24T08:19:59;24.93;;;5.27;;
33501;SDS011;22396;51.070;4.974;2023-02-24T08:22:48;14.03;;;3.20;;
33501;SDS011;22396;51.070;4.974;2023-02-24T08:25:17;16.27;;;4.47;;
33501;SDS011;22396;51.070;4.974;2023-02-24T08:27:43;17.33;;;4.07;;
33501;SDS011;22396;51.070;4.974;2023-02-24T08:30:09;14.33;;;3.57;;
33501;SDS011;22396;51.070;4.974;2023-02-24T08:32:45;12.33;;;2.83;;
33501;SDS011;22396;51.070;4.974;2023-02-24T08:37:46;8.97;;;2.73;;
33501;SDS011;22396;51.070;4.974;2023-02-24T08:40:13;11.20;;;2.97;;
33501;SDS011;22396;51.070;4.974;2023-02-24T08:43:05;10.27;;;2.83;;
33501;SDS011;22396;51.070;4.974;2023-02-24T08:46:23;13.20;;;3.30;;
33501;SDS011;22396;51.070;4.974;2023-02-24T08:48:30;9.20;;;3.03;;
33501;SDS011;22396;51.070;4.974;2023-02-24T08:51:02;9.32;;;2.80;;
33501;SDS011;22396;51.070;4.974;2023-02-24T08:53:28;13.03;;;3.17;;
33501;SDS011;22396;51.070;4.974;2023-02-24T08:55:55;12.97;;;2.00;;
33501;SDS011;22396;51.070;4.974;2023-02-24T08:58:21;7.03;;;2.40;;
33501;SDS011;22396;51.070;4.974;2023-02-24T09:00:54;9.50;;;2.73;;
33501;SDS011;22396;51.070;4.974;2023-02-24T09:03:21;11.67;;;2.67;;
33501;SDS011;22396;51.070;4.974;2023-02-24T09:05:57;12.48;;;2.80;;
33501;SDS011;22396;51.070;4.974;2023-02-24T09:08:22;12.40;;;2.60;;
33501;SDS011;22396;51.070;4.974;2023-02-24T09:10:48;6.83;;;2.27;;
33501;SDS011;22396;51.070;4.974;2023-02-24T09:13:13;8.17;;;2.00;;
33501;SDS011;22396;51.070;4.974;2023-02-24T09:15:38;9.83;;;2.57;;
33501;SDS011;22396;51.070;4.974;2023-02-24T09:18:05;14.13;;;2.83;;
33501;SDS011;22396;51.070;4.974;2023-02-24T09:20:38;9.83;;;2.10;;
33501;SDS011;22396;51.070;4.974;2023-02-24T09:23:39;10.80;;;2.40;;
33501;SDS011;22396;51.070;4.974;2023-02-24T09:26:10;8.50;;;1.97;;
33501;SDS011;22396;51.070;4.974;2023-02-24T09:28:38;10.83;;;1.73;;
33501;SDS011;22396;51.070;4.974;2023-02-24T09:31:12;9.43;;;1.50;;
33501;SDS011;22396;51.070;4.974;2023-02-24T09:33:40;10.93;;;1.97;;
33501;SDS011;22396;51.070;4.974;2023-02-24T09:36:13;7.53;;;1.67;;
33501;SDS011;22396;51.070;4.974;2023-02-24T09:43:59;8.17;;;1.80;;
33501;SDS011;22396;51.070;4.974;2023-02-24T09:46:28;11.20;;;2.05;;
33501;SDS011;22396;51.070;4.974;2023-02-24T09:48:54;20.53;;;1.90;;
33501;SDS011;22396;51.070;4.974;2023-02-24T09:51:29;11.93;;;1.70;;
33501;SDS011;22396;51.070;4.974;2023-02-24T09:54:07;10.40;;;1.50;;
33501;SDS011;22396;51.070;4.974;2023-02-24T09:56:39;6.13;;;1.50;;
33501;SDS011;22396;51.070;4.974;2023-02-24T10:07:39;14.03;;;1.80;;
33501;SDS011;22396;51.070;4.974;2023-02-24T10:10:19;6.10;;;1.27;;
33501;SDS011;22396;51.070;4.974;2023-02-24T10:12:57;5.10;;;1.37;;
33501;SDS011;22396;51.070;4.974;2023-02-24T10:15:26;9.77;;;1.60;;
33501;SDS011;22396;51.070;4.974;2023-02-24T10:18:20;7.40;;;1.20;;
33501;SDS011;22396;51.070;4.974;2023-02-24T10:20:51;16.00;;;1.93;;
33501;SDS011;22396;51.070;4.974;2023-02-24T10:26:05;10.47;;;1.60;;
33501;SDS011;22396;51.070;4.974;2023-02-24T10:34:22;16.87;;;2.13;;
33501;SDS011;22396;51.070;4.974;2023-02-24T10:36:55;10.40;;;1.40;;
33501;SDS011;22396;51.070;4.974;2023-02-24T10:39:24;8.13;;;1.40;;
33501;SDS011;22396;51.070;4.974;2023-02-24T10:41:57;11.23;;;1.77;;
33501;SDS011;22396;51.070;4.974;2023-02-24T10:44:23;7.63;;;1.67;;
33501;SDS011;22396;51.070;4.974;2023-02-24T10:47:50;3.57;;;1.33;;
33501;SDS011;22396;51.070;4.974;2023-02-24T10:49:48;13.77;;;2.10;;
33501;SDS011;22396;51.070;4.974;2023-02-24T10:52:23;8.37;;;1.73;;
33501;SDS011;22396;51.070;4.974;2023-02-24T10:55:08;11.67;;;2.40;;
33501;SDS011;22396;51.070;4.974;2023-02-24T10:57:59;6.70;;;1.40;;
33501;SDS011;22396;51.070;4.974;2023-02-24T11:00:46;10.80;;;2.27;;
33501;SDS011;22396;51.070;4.974;2023-02-24T11:03:30;7.93;;;1.70;;
33501;SDS011;22396;51.070;4.974;2023-02-24T11:06:17;10.07;;;1.77;;
33501;SDS011;22396;51.070;4.974;2023-02-24T11:08:57;9.50;;;1.70;;
33501;SDS011;22396;51.070;4.974;2023-02-24T11:11:41;7.50;;;1.70;;
33501;SDS011;22396;51.070;4.974;2023-02-24T11:14:25;7.90;;;1.73;;
33501;SDS011;22396;51.070;4.974;2023-02-24T11:17:19;8.83;;;1.90;;
33501;SDS011;22396;51.070;4.974;2023-02-24T11:22:18;7.87;;;1.70;;
33501;SDS011;22396;51.070;4.974;2023-02-24T11:24:44;6.40;;;1.57;;
33501;SDS011;22396;51.070;4.974;2023-02-24T11:27:10;8.37;;;1.67;;
33501;SDS011;22396;51.070;4.974;2023-02-24T11:30:01;13.73;;;2.47;;
33501;SDS011;22396;51.070;4.974;2023-02-24T11:32:44;7.77;;;1.90;;
33501;SDS011;22396;51.070;4.974;2023-02-24T11:35:24;8.63;;;2.23;;
33501;SDS011;22396;51.070;4.974;2023-02-24T11:40:36;9.83;;;1.33;;
33501;SDS011;22396;51.070;4.974;2023-02-24T11:43:10;7.87;;;1.27;;
33501;SDS011;22396;51.070;4.974;2023-02-24T11:45:49;5.90;;;1.87;;
33501;SDS011;22396;51.070;4.974;2023-02-24T11:48:19;7.10;;;1.60;;
33501;SDS011;22396;51.070;4.974;2023-02-24T11:55:43;10.17;;;2.47;;
33501;SDS011;22396;51.070;4.974;2023-02-24T11:58:21;13.17;;;2.27;;
33501;SDS011;22396;51.070;4.974;2023-02-24T12:00:52;11.63;;;2.50;;
33501;SDS011;22396;51.070;4.974;2023-02-24T12:03:22;6.63;;;2.08;;
33501;SDS011;22396;51.070;4.974;2023-02-24T12:05:51;6.80;;;2.90;;
33501;SDS011;22396;51.070;4.974;2023-02-24T12:10:44;7.87;;;2.40;;
33501;SDS011;22396;51.070;4.974;2023-02-24T12:13:20;5.83;;;1.87;;
33501;SDS011;22396;51.070;4.974;2023-02-24T12:15:49;11.77;;;2.07;;
33501;SDS011;22396;51.070;4.974;2023-02-24T12:18:23;7.70;;;1.97;;
33501;SDS011;22396;51.070;4.974;2023-02-24T12:23:44;12.90;;;2.37;;
33501;SDS011;22396;51.070;4.974;2023-02-24T12:26:28;9.87;;;2.53;;
33501;SDS011;22396;51.070;4.974;2023-02-24T12:34:34;6.87;;;2.40;;
33501;SDS011;22396;51.070;4.974;2023-02-24T12:45:32;10.33;;;2.40;;
33501;SDS011;22396;51.070;4.974;2023-02-24T12:58:21;6.63;;;1.87;;
33501;SDS011;22396;51.070;4.974;2023-02-24T13:12:00;6.93;;;2.33;;
33501;SDS011;22396;51.070;4.974;2023-02-24T13:16:32;10.83;;;2.40;;
33501;SDS011;22396;51.070;4.974;2023-02-24T13:19:04;6.07;;;2.57;;
33501;SDS011;22396;51.070;4.974;2023-02-24T13:21:30;16.80;;;3.17;;
33501;SDS011;22396;51.070;4.974;2023-02-24T13:23:59;10.47;;;2.77;;
33501;SDS011;22396;51.070;4.974;2023-02-24T13:26:26;13.40;;;3.47;;
33501;SDS011;22396;51.070;4.974;2023-02-24T13:28:57;8.70;;;2.80;;
33501;SDS011;22396;51.070;4.974;2023-02-24T13:31:22;11.63;;;3.70;;
33501;SDS011;22396;51.070;4.974;2023-02-24T13:33:50;8.07;;;3.20;;
33501;SDS011;22396;51.070;4.974;2023-02-24T13:36:17;10.13;;;3.03;;
33501;SDS011;22396;51.070;4.974;2023-02-24T13:43:54;11.43;;;3.50;;
33501;SDS011;22396;51.070;4.974;2023-02-24T13:46:20;9.03;;;3.63;;
33501;SDS011;22396;51.070;4.974;2023-02-24T13:48:52;15.67;;;3.93;;
33501;SDS011;22396;51.070;4.974;2023-02-24T13:51:42;12.30;;;3.30;;
33501;SDS011;22396;51.070;4.974;2023-02-24T13:59:23;15.27;;;4.63;;
33501;SDS011;22396;51.070;4.974;2023-02-24T14:02:13;14.37;;;4.30;;
33501;SDS011;22396;51.070;4.974;2023-02-24T14:04:50;11.93;;;4.70;;
33501;SDS011;22396;51.070;4.974;2023-02-24T14:07:23;12.53;;;4.40;;
33501;SDS011;22396;51.070;4.974;2023-02-24T14:09:59;10.80;;;5.10;;
33501;SDS011;22396;51.070;4.974;2023-02-24T14:12:29;13.93;;;5.17;;
33501;SDS011;22396;51.070;4.974;2023-02-24T14:14:55;8.97;;;4.47;;
33501;SDS011;22396;51.070;4.974;2023-02-24T14:17:26;14.57;;;4.60;;
33501;SDS011;22396;51.070;4.974;2023-02-24T14:20:38;19.17;;;5.22;;
33501;SDS011;22396;51.070;4.974;2023-02-24T14:22:43;22.77;;;6.20;;
33501;SDS011;22396;51.070;4.974;2023-02-24T14:25:11;15.03;;;5.40;;
33501;SDS011;22396;51.070;4.974;2023-02-24T14:27:38;16.20;;;5.13;;
33501;SDS011;22396;51.070;4.974;2023-02-24T14:30:04;16.93;;;7.13;;
33501;SDS011;22396;51.070;4.974;2023-02-24T14:32:30;16.70;;;7.90;;
33501;SDS011;22396;51.070;4.974;2023-02-24T14:34:56;12.07;;;5.83;;
33501;SDS011;22396;51.070;4.974;2023-02-24T14:37:23;17.47;;;6.80;;
33501;SDS011;22396;51.070;4.974;2023-02-24T14:39:53;17.77;;;7.97;;
33501;SDS011;22396;51.070;4.974;2023-02-24T14:42:19;11.07;;;5.93;;
33501;SDS011;22396;51.070;4.974;2023-02-24T14:44:48;21.03;;;7.90;;
33501;SDS011;22396;51.070;4.974;2023-02-24T14:47:14;12.77;;;7.07;;
33501;SDS011;22396;51.070;4.974;2023-02-24T14:49:39;19.23;;;8.93;;
33501;SDS011;22396;51.070;4.974;2023-02-24T14:54:51;19.03;;;8.43;;
33501;SDS011;22396;51.070;4.974;2023-02-24T14:57:19;20.90;;;8.53;;
33501;SDS011;22396;51.070;4.974;2023-02-24T14:59:48;20.13;;;9.53;;
33501;SDS011;22396;51.070;4.974;2023-02-24T15:02:15;23.63;;;11.33;;
33501;SDS011;22396;51.070;4.974;2023-02-24T15:04:43;24.60;;;10.97;;
33501;SDS011;22396;51.070;4.974;2023-02-24T15:07:17;17.00;;;8.57;;
33501;SDS011;22396;51.070;4.974;2023-02-24T15:12:10;16.30;;;7.70;;
33501;SDS011;22396;51.070;4.974;2023-02-24T15:14:36;20.40;;;9.13;;
33501;SDS011;22396;51.070;4.974;2023-02-24T15:17:09;18.67;;;8.00;;
33501;SDS011;22396;51.070;4.974;2023-02-24T15:19:41;19.60;;;8.57;;
33501;SDS011;22396;51.070;4.974;2023-02-24T15:22:26;15.18;;;7.72;;
33501;SDS011;22396;51.070;4.974;2023-02-24T15:24:53;13.70;;;7.32;;
33501;SDS011;22396;51.070;4.974;2023-02-24T15:27:22;14.60;;;6.87;;
33501;SDS011;22396;51.070;4.974;2023-02-24T15:30:02;18.40;;;6.60;;
33501;SDS011;22396;51.070;4.974;2023-02-24T15:32:29;15.33;;;7.70;;
33501;SDS011;22396;51.070;4.974;2023-02-24T15:34:55;13.43;;;6.77;;
33501;SDS011;22396;51.070;4.974;2023-02-24T15:37:21;16.57;;;7.07;;
33501;SDS011;22396;51.070;4.974;2023-02-24T15:39:47;20.87;;;8.30;;
33501;SDS011;22396;51.070;4.974;2023-02-24T15:44:51;15.47;;;8.30;;
33501;SDS011;22396;51.070;4.974;2023-02-24T15:47:21;20.93;;;8.83;;
33501;SDS011;22396;51.070;4.974;2023-02-24T15:49:47;17.60;;;8.43;;
33501;SDS011;22396;51.070;4.974;2023-02-24T15:52:21;14.97;;;7.83;;
33501;SDS011;22396;51.070;4.974;2023-02-24T15:54:47;16.93;;;7.87;;
33501;SDS011;22396;51.070;4.974;2023-02-24T15:57:13;25.27;;;8.60;;
33501;SDS011;22396;51.070;4.974;2023-02-24T15:59:38;18.20;;;9.30;;
33501;SDS011;22396;51.070;4.974;2023-02-24T16:02:09;16.27;;;8.40;;
33501;SDS011;22396;51.070;4.974;2023-02-24T16:04:35;18.07;;;8.83;;
33501;SDS011;22396;51.070;4.974;2023-02-24T16:07:00;17.53;;;8.80;;
33501;SDS011;22396;51.070;4.974;2023-02-24T16:09:29;21.70;;;8.97;;
33501;SDS011;22396;51.070;4.974;2023-02-24T16:11:56;19.30;;;9.23;;
33501;SDS011;22396;51.070;4.974;2023-02-24T16:14:21;17.37;;;8.27;;
33501;SDS011;22396;51.070;4.974;2023-02-24T16:16:47;16.33;;;8.93;;
33501;SDS011;22396;51.070;4.974;2023-02-24T16:19:13;21.77;;;11.13;;
33501;SDS011;22396;51.070;4.974;2023-02-24T16:21:40;18.27;;;10.03;;
33501;SDS011;22396;51.070;4.974;2023-02-24T16:24:06;17.73;;;9.17;;
33501;SDS011;22396;51.070;4.974;2023-02-24T16:26:35;17.10;;;8.50;;
33501;SDS011;22396;51.070;4.974;2023-02-24T16:29:01;13.60;;;8.00;;
33501;SDS011;22396;51.070;4.974;2023-02-24T16:31:27;18.13;;;8.10;;
33501;SDS011;22396;51.070;4.974;2023-02-24T16:33:55;16.90;;;9.07;;
33501;SDS011;22396;51.070;4.974;2023-02-24T16:36:22;18.03;;;8.50;;
33501;SDS011;22396;51.070;4.974;2023-02-24T16:38:48;17.40;;;8.53;;
33501;SDS011;22396;51.070;4.974;2023-02-24T16:41:17;21.07;;;9.73;;
33501;SDS011;22396;51.070;4.974;2023-02-24T16:43:42;19.13;;;8.30;;
33501;SDS011;22396;51.070;4.974;2023-02-24T16:46:12;18.03;;;7.47;;
33501;SDS011;22396;51.070;4.974;2023-02-24T16:48:39;20.97;;;9.60;;
33501;SDS011;22396;51.070;4.974;2023-02-24T16:51:07;24.57;;;10.47;;
33501;SDS011;22396;51.070;4.974;2023-02-24T16:53:34;17.83;;;8.27;;
33501;SDS011;22396;51.070;4.974;2023-02-24T16:55:59;15.97;;;7.07;;
33501;SDS011;22396;51.070;4.974;2023-02-24T16:58:25;16.07;;;7.43;;
33501;SDS011;22396;51.070;4.974;2023-02-24T17:00:51;18.60;;;7.97;;
33501;SDS011;22396;51.070;4.974;2023-02-24T17:03:20;22.87;;;9.10;;
33501;SDS011;22396;51.070;4.974;2023-02-24T17:05:47;17.37;;;8.20;;
33501;SDS011;22396;51.070;4.974;2023-02-24T17:08:13;23.43;;;8.60;;